createdAt,value
2018-11-28T00:01:58.262Z,19.62
2018-11-28T00:04:29.628Z,16.75
2018-11-28T00:06:59.890Z,17.25
2018-11-28T00:09:29.869Z,16.52
2018-11-28T00:11:59.872Z,16.85
2018-11-28T00:14:29.838Z,16.45
2018-11-28T00:16:59.950Z,15.80
2018-11-28T00:19:30.463Z,14.05
2018-11-28T00:22:00.506Z,15.70
2018-11-28T00:24:30.530Z,16.55
2018-11-28T00:27:00.571Z,17.65
2018-11-28T00:29:30.579Z,16.40
2018-11-28T00:32:01.804Z,16.20
2018-11-28T00:34:31.867Z,16.17
2018-11-28T00:37:02.109Z,14.65
2018-11-28T00:39:32.101Z,15.60
2018-11-28T00:42:02.655Z,14.03
2018-11-28T00:44:33.036Z,15.58
2018-11-28T00:47:03.051Z,15.78
2018-11-28T00:49:33.062Z,16.75
2018-11-28T00:52:03.588Z,14.60
2018-11-28T00:54:33.683Z,15.85
2018-11-28T00:57:03.798Z,14.78
2018-11-28T00:59:34.216Z,16.75
2018-11-28T01:02:04.206Z,15.90
2018-11-28T01:04:34.444Z,16.05
2018-11-28T01:07:04.461Z,15.15
2018-11-28T01:09:34.500Z,14.70
2018-11-28T01:12:04.523Z,15.18
2018-11-28T01:14:34.521Z,15.10
2018-11-28T01:17:05.826Z,16.60
2018-11-28T01:19:36.067Z,15.10
2018-11-28T01:22:06.556Z,15.70
2018-11-28T01:24:37.015Z,16.40
2018-11-28T01:27:07.384Z,15.13
2018-11-28T01:29:37.394Z,16.20
2018-11-28T01:32:07.745Z,16.37
2018-11-28T01:34:37.865Z,16.97
2018-11-28T01:37:08.107Z,16.10
2018-11-28T01:39:38.388Z,15.78
2018-11-28T01:42:08.819Z,16.85
2018-11-28T01:44:38.937Z,16.35
2018-11-28T01:47:09.511Z,16.90
2018-11-28T01:49:39.687Z,15.80
2018-11-28T01:52:09.693Z,15.08
2018-11-28T01:54:39.674Z,15.90
2018-11-28T01:57:10.223Z,16.60
2018-11-28T01:59:40.312Z,17.52
2018-11-28T02:02:11.237Z,18.25
2018-11-28T02:04:41.375Z,17.40
2018-11-28T02:07:11.925Z,15.15
2018-11-28T02:09:41.995Z,16.77
2018-11-28T02:12:11.969Z,17.70
2018-11-28T02:14:41.988Z,18.00
2018-11-28T02:17:12.103Z,19.25
2018-11-28T02:19:42.112Z,16.20
2018-11-28T02:22:12.163Z,17.52
2018-11-28T02:24:42.222Z,18.00
2018-11-28T02:27:12.209Z,17.25
2018-11-28T02:29:42.302Z,17.95
2018-11-28T02:32:12.367Z,18.50
2018-11-28T02:34:42.597Z,17.15
2018-11-28T02:37:12.649Z,18.15
2018-11-28T02:39:42.648Z,17.35
2018-11-28T02:42:12.798Z,17.40
2018-11-28T02:44:42.859Z,18.23
2018-11-28T02:47:12.938Z,16.60
2018-11-28T02:49:42.973Z,17.48
2018-11-28T02:52:13.098Z,18.55
2018-11-28T02:54:43.303Z,16.97
2018-11-28T02:57:13.424Z,19.95
2018-11-28T02:59:43.539Z,19.92
2018-11-28T03:02:13.647Z,18.48
2018-11-28T03:04:43.755Z,17.95
2018-11-28T03:07:13.910Z,17.80
2018-11-28T03:09:44.070Z,19.17
2018-11-28T03:12:14.307Z,17.80
2018-11-28T03:14:44.306Z,17.65
2018-11-28T03:17:28.422Z,17.00
2018-11-28T03:19:58.473Z,18.52
2018-11-28T03:22:28.538Z,18.80
2018-11-28T03:24:58.702Z,16.85
2018-11-28T03:27:28.675Z,17.48
2018-11-28T03:29:58.924Z,19.27
2018-11-28T03:32:28.997Z,19.75
2018-11-28T03:34:59.038Z,17.23
2018-11-28T03:37:29.083Z,16.77
2018-11-28T03:39:59.135Z,17.90
2018-11-28T03:42:29.131Z,16.97
2018-11-28T03:44:59.361Z,19.23
2018-11-28T03:47:29.471Z,18.92
2018-11-28T03:49:59.535Z,18.57
2018-11-28T03:52:29.551Z,17.27
2018-11-28T03:54:59.693Z,17.98
2018-11-28T03:57:29.804Z,19.35
2018-11-28T03:59:59.845Z,18.02
2018-11-28T04:02:30.055Z,19.37
2018-11-28T04:05:00.175Z,16.77
2018-11-28T04:07:30.167Z,19.05
2018-11-28T04:10:00.232Z,19.65
2018-11-28T04:12:30.258Z,18.70
2018-11-28T04:15:00.413Z,17.20
2018-11-28T04:17:30.574Z,17.10
2018-11-28T04:20:00.722Z,17.35
2018-11-28T04:22:30.778Z,16.30
2018-11-28T04:25:00.869Z,20.90
2018-11-28T04:27:30.855Z,17.35
2018-11-28T04:30:01.103Z,19.60
2018-11-28T04:32:31.213Z,17.80
2018-11-28T04:35:01.275Z,16.50
2018-11-28T04:37:31.450Z,17.65
2018-11-28T04:40:01.597Z,19.37
2018-11-28T04:42:31.719Z,18.67
2018-11-28T04:45:01.848Z,18.90
2018-11-28T04:47:31.848Z,19.70
2018-11-28T04:50:01.917Z,17.70
2018-11-28T04:52:32.069Z,18.32
2018-11-28T04:55:02.147Z,18.60
2018-11-28T04:57:32.261Z,17.27
2018-11-28T05:00:02.323Z,17.92
2018-11-28T05:02:32.358Z,19.25
2018-11-28T05:05:02.567Z,17.35
2018-11-28T05:07:32.611Z,18.05
2018-11-28T05:10:03.426Z,18.50
2018-11-28T05:12:33.660Z,17.87
2018-11-28T05:15:03.962Z,18.45
2018-11-28T05:17:34.230Z,18.98
2018-11-28T05:20:04.521Z,20.17
2018-11-28T05:22:34.757Z,18.60
2018-11-28T05:25:05.409Z,20.00
2018-11-28T05:27:35.604Z,18.45
2018-11-28T05:30:09.246Z,18.40
2018-11-28T05:32:39.737Z,17.92
2018-11-28T05:35:11.935Z,16.80
2018-11-28T05:37:42.568Z,18.20
2018-11-28T05:40:20.011Z,16.48
2018-11-28T05:42:50.269Z,17.45
2018-11-28T05:45:21.414Z,18.07
2018-11-28T05:47:51.968Z,15.03
2018-11-28T05:50:23.318Z,18.07
2018-11-28T05:52:53.406Z,17.70
2018-11-28T05:55:24.217Z,17.45
2018-11-28T05:57:54.251Z,17.20
2018-11-28T06:00:33.740Z,16.07
2018-11-28T06:03:05.686Z,16.23
2018-11-28T06:05:36.171Z,18.48
2018-11-28T06:08:06.922Z,17.52
2018-11-28T06:10:36.909Z,16.73
2018-11-28T06:16:08.674Z,15.98
2018-11-28T06:18:38.936Z,16.67
2018-11-28T06:21:09.214Z,15.98
2018-11-28T06:23:39.408Z,15.88
2018-11-28T06:26:11.060Z,14.68
2018-11-28T06:28:42.648Z,14.93
2018-11-28T06:31:12.835Z,15.93
2018-11-28T06:33:43.094Z,16.30
2018-11-28T06:36:13.769Z,14.40
2018-11-28T06:38:43.887Z,14.70
2018-11-28T06:41:14.145Z,15.45
2018-11-28T06:43:44.223Z,16.35
2018-11-28T06:46:14.424Z,14.38
2018-11-28T06:48:44.656Z,14.70
2018-11-28T06:51:14.977Z,15.35
2018-11-28T06:53:45.159Z,14.80
2018-11-28T06:56:15.432Z,15.25
2018-11-28T06:58:45.602Z,15.68
2018-11-28T07:01:23.452Z,13.85
2018-11-28T07:03:53.706Z,14.68
2018-11-28T07:06:23.789Z,14.73
2018-11-28T07:08:53.995Z,15.75
2018-11-28T07:11:24.138Z,14.07
2018-11-28T07:13:54.326Z,16.85
2018-11-28T07:16:24.797Z,15.25
2018-11-28T07:19:16.278Z,16.30
2018-11-28T07:21:46.478Z,15.35
2018-11-28T07:24:16.624Z,15.40
2018-11-28T07:26:48.843Z,16.52
2018-11-28T07:29:18.919Z,16.97
2018-11-28T07:31:49.153Z,13.90
2018-11-28T07:34:19.338Z,16.48
2018-11-28T07:36:49.560Z,14.98
2018-11-28T07:39:19.824Z,15.53
2018-11-28T07:41:50.133Z,16.00
2018-11-28T07:44:20.412Z,16.70
2018-11-28T07:46:50.554Z,15.53
2018-11-28T07:49:20.705Z,15.60
2018-11-28T07:51:51.305Z,16.90
2018-11-28T07:54:21.538Z,18.00
2018-11-28T07:56:51.721Z,16.35
2018-11-28T07:59:22.051Z,17.85
2018-11-28T08:01:52.536Z,17.07
2018-11-28T08:04:22.826Z,16.57
2018-11-28T08:06:52.908Z,16.45
2018-11-28T08:09:23.058Z,15.98
2018-11-28T08:11:53.304Z,18.07
2018-11-28T08:14:23.440Z,18.57
2018-11-28T08:16:53.602Z,16.67
2018-11-28T08:19:24.131Z,18.35
2018-11-28T08:21:54.284Z,18.05
2018-11-28T08:24:24.538Z,17.92
2018-11-28T08:26:54.719Z,16.45
2018-11-28T08:29:25.490Z,18.23
2018-11-28T08:31:55.612Z,16.32
2018-11-28T08:34:25.869Z,17.07
2018-11-28T08:36:55.978Z,17.23
2018-11-28T08:39:26.107Z,16.87
2018-11-28T08:41:56.505Z,17.75
2018-11-28T08:44:26.594Z,16.12
2018-11-28T08:46:56.822Z,16.48
2018-11-28T08:49:27.088Z,15.48
2018-11-28T08:51:57.428Z,17.73
2018-11-28T08:54:27.723Z,15.95
2018-11-28T08:56:57.965Z,16.10
2018-11-28T08:59:28.131Z,16.17
2018-11-28T09:01:58.365Z,15.85
2018-11-28T09:04:28.615Z,17.17
2018-11-28T09:06:58.831Z,16.65
2018-11-28T09:09:29.093Z,16.23
2018-11-28T09:11:59.245Z,17.45
2018-11-28T09:14:29.396Z,17.73
2018-11-28T09:16:59.563Z,17.45
2018-11-28T09:19:29.673Z,16.73
2018-11-28T09:21:59.997Z,16.97
2018-11-28T09:24:30.079Z,16.73
2018-11-28T09:27:00.276Z,15.60
2018-11-28T09:29:30.525Z,16.10
2018-11-28T09:32:00.783Z,17.23
2018-11-28T09:34:31.063Z,15.93
2018-11-28T09:37:01.247Z,16.05
2018-11-28T09:39:31.389Z,16.35
2018-11-28T09:42:01.565Z,15.93
2018-11-28T09:44:31.664Z,14.95
2018-11-28T09:47:01.827Z,16.35
2018-11-28T09:49:32.087Z,18.12
2018-11-28T09:52:02.271Z,15.08
2018-11-28T09:54:32.425Z,15.88
2018-11-28T09:57:02.674Z,17.45
2018-11-28T09:59:33.044Z,15.55
2018-11-28T10:02:03.349Z,15.88
2018-11-28T10:04:33.534Z,16.57
2018-11-28T10:07:03.730Z,14.95
2018-11-28T10:09:33.746Z,15.28
2018-11-28T10:12:04.156Z,17.27
2018-11-28T10:14:34.591Z,14.47
2018-11-28T10:17:04.638Z,15.45
2018-11-28T10:19:34.972Z,15.28
2018-11-28T10:22:05.067Z,15.40
2018-11-28T10:24:35.176Z,15.55
2018-11-28T10:27:05.484Z,15.75
2018-11-28T10:29:35.719Z,14.80
2018-11-28T10:32:05.899Z,14.15
2018-11-28T10:34:36.224Z,15.25
2018-11-28T10:37:06.366Z,13.38
2018-11-28T10:39:36.486Z,15.78
2018-11-28T10:42:07.003Z,14.00
2018-11-28T10:44:37.445Z,14.15
2018-11-28T10:47:07.590Z,13.03
2018-11-28T10:49:37.726Z,15.30
2018-11-28T10:52:08.426Z,14.07
2018-11-28T10:54:38.495Z,14.13
2018-11-28T10:57:09.191Z,13.48
2018-11-28T10:59:39.313Z,14.28
2018-11-28T11:04:16.371Z,13.60
2018-11-28T11:06:51.584Z,13.20
2018-11-28T11:09:26.589Z,13.05
2018-11-28T11:12:01.705Z,13.18
2018-11-28T11:14:51.887Z,13.62
2018-11-28T11:17:21.996Z,12.70
2018-11-28T11:19:52.094Z,13.32
2018-11-28T11:22:22.197Z,12.18
2018-11-28T11:24:52.412Z,12.60
2018-11-28T11:27:22.475Z,11.20
2018-11-28T11:29:52.539Z,12.05
2018-11-28T11:32:22.625Z,12.43
2018-11-28T11:34:52.605Z,11.67
2018-11-28T11:37:23.347Z,11.83
2018-11-28T11:39:53.524Z,12.63
2018-11-28T11:42:23.619Z,11.90
2018-11-28T11:44:53.954Z,13.47
2018-11-28T11:47:23.942Z,11.73
2018-11-28T11:49:53.989Z,12.70
2018-11-28T11:52:24.592Z,12.30
2018-11-28T11:54:54.704Z,12.00
2018-11-28T11:57:37.852Z,11.40
2018-11-28T12:00:19.412Z,12.47
2018-11-28T12:03:03.201Z,11.95
2018-11-28T12:05:33.263Z,11.18
2018-11-28T12:08:05.238Z,12.23
2018-11-28T12:10:35.767Z,12.43
2018-11-28T12:13:06.465Z,12.50
2018-11-28T12:15:38.391Z,13.05
2018-11-28T12:18:08.596Z,12.78
2018-11-28T12:20:46.339Z,11.83
2018-11-28T12:23:16.566Z,10.75
2018-11-28T12:25:46.786Z,11.95
2018-11-28T12:28:17.083Z,11.00
2018-11-28T12:30:47.208Z,12.00
2018-11-28T12:33:27.166Z,11.90
2018-11-28T12:35:58.989Z,11.67
2018-11-28T12:38:30.578Z,13.32
2018-11-28T12:41:04.371Z,11.10
2018-11-28T12:43:34.580Z,11.47
2018-11-28T12:46:04.873Z,11.88
2018-11-28T12:48:35.200Z,13.30
2018-11-28T12:53:53.590Z,12.33
2018-11-28T12:56:30.321Z,11.33
2018-11-28T12:59:00.659Z,11.95
2018-11-28T13:01:30.957Z,12.03
2018-11-28T13:04:01.165Z,11.80
2018-11-28T13:06:31.711Z,11.90
2018-11-28T13:09:01.958Z,12.10
2018-11-28T13:11:32.067Z,11.67
2018-11-28T13:14:02.166Z,11.40
2018-11-28T13:16:33.214Z,12.50
2018-11-28T13:21:51.508Z,11.87
2018-11-28T13:27:15.361Z,11.13
2018-11-28T13:29:45.543Z,11.83
2018-11-28T13:32:17.561Z,11.87
2018-11-28T13:35:15.794Z,12.00
2018-11-28T13:37:50.165Z,12.47
2018-11-28T13:46:07.288Z,11.67
2018-11-28T13:51:21.457Z,11.60
2018-11-28T13:53:51.658Z,10.70
2018-11-28T13:59:59.999Z,10.27
2018-11-28T14:02:30.068Z,11.67
2018-11-28T14:05:27.299Z,9.80
2018-11-28T14:10:46.477Z,10.90
2018-11-28T14:13:23.237Z,11.90
2018-11-28T14:15:53.427Z,10.70
2018-11-28T14:21:57.354Z,11.47
2018-11-28T14:27:29.579Z,10.73
2018-11-28T14:29:59.790Z,10.43
2018-11-28T14:32:31.795Z,11.63
2018-11-28T14:35:07.565Z,10.47
2018-11-28T14:37:38.076Z,11.30
2018-11-28T14:40:16.108Z,11.00
2018-11-28T14:42:47.859Z,9.93
2018-11-28T14:45:19.002Z,11.90
2018-11-28T14:47:50.198Z,11.77
2018-11-28T14:50:28.115Z,11.23
2018-11-28T14:57:02.664Z,11.70
2018-11-28T14:59:32.862Z,11.10
2018-11-28T15:04:55.901Z,10.33
2018-11-28T15:07:26.725Z,11.13
2018-11-28T15:10:04.351Z,11.17
2018-11-28T15:12:35.886Z,10.53
2018-11-28T15:15:08.108Z,11.10
2018-11-28T15:17:38.294Z,10.85
2018-11-28T15:20:09.916Z,11.53
2018-11-28T15:22:41.326Z,9.73
2018-11-28T15:25:11.949Z,9.68
2018-11-28T15:27:42.337Z,10.87
2018-11-28T15:30:12.782Z,11.67
2018-11-28T15:32:43.288Z,10.90
2018-11-28T15:35:14.782Z,11.75
2018-11-28T15:37:45.101Z,11.57
2018-11-28T15:40:18.243Z,11.47
2018-11-28T15:42:48.962Z,10.90
2018-11-28T15:45:19.099Z,11.50
2018-11-28T15:47:49.206Z,12.20
2018-11-28T15:50:19.383Z,12.87
2018-11-28T15:52:49.954Z,12.07
2018-11-28T15:55:20.027Z,10.53
2018-11-28T15:57:50.081Z,13.20
2018-11-28T16:00:24.900Z,11.93
2018-11-28T16:02:55.703Z,11.45
2018-11-28T16:05:29.812Z,11.80
2018-11-28T16:08:07.814Z,12.07
2018-11-28T16:10:41.164Z,11.80
2018-11-28T16:13:18.732Z,11.60
2018-11-28T16:15:54.920Z,12.35
2018-11-28T16:18:31.413Z,11.90
2018-11-28T16:21:09.181Z,11.57
2018-11-28T16:23:49.000Z,10.67
2018-11-28T16:26:19.565Z,14.68
2018-11-28T16:28:50.005Z,12.17
2018-11-28T16:31:20.158Z,12.50
2018-11-28T16:34:03.421Z,12.33
2018-11-28T16:36:34.227Z,13.13
2018-11-28T16:39:05.471Z,13.88
2018-11-28T16:41:36.313Z,14.07
2018-11-28T16:44:16.796Z,12.63
2018-11-28T16:49:49.792Z,14.00
2018-11-28T16:52:20.999Z,14.40
2018-11-28T16:55:19.157Z,13.95
2018-11-28T16:57:55.057Z,15.53
2018-11-28T17:00:28.294Z,15.00
2018-11-28T17:09:31.180Z,14.65
2018-11-28T17:12:01.233Z,14.65
2018-11-28T17:14:32.052Z,16.15
2018-11-28T17:17:03.677Z,15.95
2018-11-28T17:19:34.230Z,14.73
2018-11-28T17:22:05.776Z,16.67
2018-11-28T17:24:36.456Z,16.00
2018-11-28T17:27:07.097Z,17.30
2018-11-28T17:29:39.836Z,17.00
2018-11-28T17:34:59.520Z,17.05
2018-11-28T17:37:30.530Z,14.75
2018-11-28T17:40:25.490Z,17.48
2018-11-28T17:42:59.355Z,17.98
2018-11-28T17:54:43.634Z,13.40
2018-11-28T17:57:13.754Z,15.45
2018-11-28T17:59:52.105Z,15.10
2018-11-28T18:05:22.204Z,16.00
2018-11-28T18:07:55.887Z,16.00
2018-11-28T18:10:42.431Z,15.45
2018-11-28T18:13:19.946Z,14.90
2018-11-28T18:16:15.108Z,15.08
2018-11-28T18:18:59.733Z,14.93
2018-11-28T18:21:33.422Z,14.98
2018-11-28T18:24:03.533Z,13.62
2018-11-28T18:26:39.418Z,13.78
2018-11-28T18:29:09.494Z,14.20
2018-11-28T18:31:39.650Z,14.93
2018-11-28T18:34:09.726Z,14.05
2018-11-28T18:36:41.725Z,13.38
2018-11-28T18:39:14.093Z,14.50
2018-11-28T18:41:44.109Z,13.05
2018-11-28T18:44:14.162Z,12.70
2018-11-28T18:46:44.253Z,12.30
2018-11-28T18:49:38.977Z,13.03
2018-11-28T18:52:09.557Z,11.03
2018-11-28T18:54:39.655Z,11.25
2018-11-28T18:57:33.812Z,11.48
2018-11-28T19:03:12.106Z,12.20
2018-11-28T19:05:44.984Z,12.75
2018-11-28T19:08:15.111Z,11.35
2018-11-28T19:10:45.180Z,12.25
2018-11-28T19:13:15.266Z,11.43
2018-11-28T19:15:45.390Z,11.73
2018-11-28T19:18:15.404Z,12.20
2018-11-28T19:20:45.521Z,11.53
2018-11-28T19:23:15.291Z,11.57
2018-11-28T19:28:54.708Z,8.93
2018-11-28T19:31:25.269Z,12.20
2018-11-28T19:33:56.816Z,12.03
2018-11-28T19:36:26.972Z,11.15
2018-11-28T19:38:57.281Z,15.40
2018-11-28T19:41:55.670Z,13.32
2018-11-28T19:44:28.687Z,11.70
2018-11-28T19:47:08.304Z,11.10
2018-11-28T19:49:40.995Z,14.20
2018-11-28T19:52:12.361Z,12.63
2018-11-28T19:54:42.447Z,17.12
2018-11-28T20:00:22.369Z,10.88
2018-11-28T20:06:05.386Z,11.12
2018-11-28T20:08:35.298Z,10.45
2018-11-28T20:11:10.958Z,13.68
2018-11-28T20:13:41.217Z,11.45
2018-11-28T20:16:11.222Z,13.30
2018-11-28T20:18:57.098Z,11.93
2018-11-28T20:21:27.543Z,13.03
2018-11-28T20:24:09.385Z,10.45
2018-11-28T20:26:55.723Z,9.35
2018-11-28T20:29:26.322Z,10.30
2018-11-28T20:35:37.068Z,10.23
2018-11-28T20:38:22.510Z,9.80
2018-11-28T20:41:16.931Z,10.28
2018-11-28T20:46:57.355Z,9.43
2018-11-28T20:49:27.353Z,10.90
2018-11-28T20:51:57.428Z,11.22
2018-11-28T20:54:27.358Z,9.55
2018-11-28T20:56:57.347Z,10.45
2018-11-28T20:59:39.504Z,9.68
2018-11-28T21:02:13.519Z,10.90
2018-11-28T21:04:43.587Z,9.35
2018-11-28T21:07:34.669Z,10.55
2018-11-28T21:10:12.222Z,9.83
2018-11-28T21:15:58.372Z,10.13
2018-11-28T21:18:28.441Z,10.88
2018-11-28T21:20:58.464Z,10.70
2018-11-28T21:26:33.829Z,10.85
2018-11-28T21:29:04.306Z,11.05
2018-11-28T21:31:35.087Z,10.48
2018-11-28T21:34:25.514Z,10.32
2018-11-28T21:40:10.257Z,11.75
2018-11-28T21:45:50.905Z,10.35
2018-11-28T21:48:20.841Z,10.75
2018-11-28T21:50:50.992Z,10.20
2018-11-28T21:53:21.057Z,11.70
2018-11-28T21:55:51.096Z,10.90
2018-11-28T21:59:01.684Z,11.50
2018-11-28T22:01:31.727Z,11.50
2018-11-28T22:04:01.734Z,10.68
2018-11-28T22:06:31.718Z,11.12
2018-11-28T22:09:01.983Z,10.15
2018-11-28T22:12:00.434Z,10.55
2018-11-28T22:14:30.433Z,9.60
2018-11-28T22:17:00.416Z,10.50
2018-11-28T22:19:30.488Z,10.98
2018-11-28T22:22:00.637Z,10.40
2018-11-28T22:24:30.790Z,9.90
2018-11-28T22:27:00.918Z,10.98
2018-11-28T22:32:40.723Z,11.08
2018-11-28T22:38:19.576Z,9.77
2018-11-28T22:40:49.511Z,10.47
2018-11-28T22:43:38.373Z,10.10
2018-11-28T22:49:17.986Z,9.80
2018-11-28T22:51:48.043Z,11.47
2018-11-28T22:54:18.152Z,10.47
2018-11-28T22:59:57.920Z,10.20
2018-11-28T23:05:29.940Z,10.87
2018-11-28T23:08:02.294Z,10.20
2018-11-28T23:10:32.277Z,10.00
2018-11-28T23:13:02.543Z,10.00
2018-11-28T23:15:50.398Z,10.10
2018-11-28T23:18:20.369Z,10.20
2018-11-28T23:23:58.917Z,11.50
2018-11-28T23:26:28.911Z,10.80
2018-11-28T23:28:58.985Z,10.50
2018-11-28T23:31:52.396Z,10.90
2018-11-28T23:34:36.802Z,8.73
2018-11-28T23:37:08.015Z,10.08
2018-11-28T23:39:39.233Z,9.73
2018-11-28T23:45:18.394Z,10.27
2018-11-28T23:47:51.839Z,10.43
2018-11-28T23:50:24.753Z,8.87
2018-11-28T23:53:07.135Z,10.50
2018-11-28T23:55:52.812Z,9.57
2018-11-28T23:58:22.849Z,10.03
